METAR AND TAF INFORMATION
METAR FOR EHKD
ADDS - METARS form results

(0854 UTC 16 December 2019)
Data provider http://aviationweather.gov/metar/data/
 
METAR text: EHKD 160841Z AUTO 20014KT 9999 FEW009 SCT011 FEW015CB BKN037 07/06 Q1002 GRN 19013KT 9999 SCT013 BKN016
Conditions at: EHKD (DE KOOY (NAVY) , NL) observed 0841 UTC 16 December 2019
Temperature: 7.0°C (45°F)
Dewpoint: 6.0°C (43°F) [RH = 93%]
Pressure (altimeter): 29.59 inches Hg (1002.0 mb)
Winds: from the SSW (200 degrees) at 16 MPH (14 knots; 7.2 m/s)
Visibility: 6 or more miles (10+ km)
Ceiling: 3700 feet AGL
Clouds: few clouds at 900 feet AGL
scattered clouds at 1100 feet AGL
few clouds at 1500 feet AGL
broken clouds at 3700 feet AGL
Weather: no significant weather observed at this time

METAR text: EHKD 160832Z AUTO 20013KT 9999 SCT011 BKN014 FEW015CB OVC042 07/06 Q1002 GRN 19013KT 9999 SCT013 BKN016
Conditions at: EHKD (DE KOOY (NAVY) , NL) observed 0832 UTC 16 December 2019
Temperature: 7.0°C (45°F)
Dewpoint: 6.0°C (43°F) [RH = 93%]
Pressure (altimeter): 29.59 inches Hg (1002.0 mb)
Winds: from the SSW (200 degrees) at 15 MPH (13 knots; 6.7 m/s)
Visibility: 6 or more miles (10+ km)
Ceiling: 1400 feet AGL
Clouds: scattered clouds at 1100 feet AGL
broken clouds at 1400 feet AGL
few clouds at 1500 feet AGL
overcast cloud deck at 4200 feet AGL
Weather: no significant weather observed at this time

METAR text: EHKD 160831Z AUTO 20013KT 170V230 9999 SCT011 SCT014 FEW015CB BKN042 07/06 Q1002 GRN 19013KT 9999 SCT013 BKN016
Conditions at: EHKD (DE KOOY (NAVY) , NL) observed 0831 UTC 16 December 2019
Temperature: 7.0°C (45°F)
Dewpoint: 6.0°C (43°F) [RH = 93%]
Pressure (altimeter): 29.59 inches Hg (1002.0 mb)
Winds: from the SSW (200 degrees) at 15 MPH (13 knots; 6.7 m/s)
Visibility: 6 or more miles (10+ km)
Ceiling: 4200 feet AGL
Clouds: scattered clouds at 1100 feet AGL
scattered clouds at 1400 feet AGL
few clouds at 1500 feet AGL
broken clouds at 4200 feet AGL
Weather: no significant weather observed at this time

METAR text: EHKD 160826Z AUTO 20012KT 9999 FEW011 FEW015CB BKN041 BKN056 07/06 Q1002 GRN 19013KT 9999 SCT013 BKN016
Conditions at: EHKD (DE KOOY (NAVY) , NL) observed 0826 UTC 16 December 2019
Temperature: 7.0°C (45°F)
Dewpoint: 6.0°C (43°F) [RH = 93%]
Pressure (altimeter): 29.59 inches Hg (1002.0 mb)
Winds: from the SSW (200 degrees) at 14 MPH (12 knots; 6.2 m/s)
Visibility: 6 or more miles (10+ km)
Ceiling: 4100 feet AGL
Clouds: few clouds at 1100 feet AGL
few clouds at 1500 feet AGL
broken clouds at 4100 feet AGL
broken clouds at 5600 feet AGL
Weather: no significant weather observed at this time

METAR text: EHKD 160825Z AUTO 19013KT //// // FEW011 SCT013 FEW015CB BKN038 07/05 Q1002 RE// 19013KT 9999 SCT013 BKN016
Conditions at: EHKD (DE KOOY (NAVY) , NL) observed 0825 UTC 16 December 2019
Temperature: 7.0°C (45°F)
Dewpoint: 5.0°C (41°F) [RH = 87%]
Pressure (altimeter): 29.59 inches Hg (1002.0 mb)
Winds: from the S (190 degrees) at 15 MPH (13 knots; 6.7 m/s)
Visibility: 6 or more miles (10+ km)
Ceiling: 3800 feet AGL
Clouds: few clouds at 1100 feet AGL
scattered clouds at 1300 feet AGL
few clouds at 1500 feet AGL
broken clouds at 3800 feet AGL
Weather: no significant weather observed at this time

METAR text: EHKD 160802Z AUTO 19012KT 9999 BKN012 BKN014 BKN065 06/05 Q1002 19013KT 9999 SCT013 BKN016
Conditions at: EHKD (DE KOOY (NAVY) , NL) observed 0802 UTC 16 December 2019
Temperature: 6.0°C (43°F)
Dewpoint: 5.0°C (41°F) [RH = 93%]
Pressure (altimeter): 29.59 inches Hg (1002.0 mb)
Winds: from the S (190 degrees) at 14 MPH (12 knots; 6.2 m/s)
Visibility: 6 or more miles (10+ km)
Ceiling: 1200 feet AGL
Clouds: broken clouds at 1200 feet AGL
broken clouds at 1400 feet AGL
broken clouds at 6500 feet AGL
scattered clouds at 1300 feet AGL
Weather: no significant weather observed at this time

METAR text: EHKD 160801Z AUTO 18013KT 9999 SCT013 BKN065 BKN073 06/05 Q1002 19013KT 9999 SCT013 BKN090
Conditions at: EHKD (DE KOOY (NAVY) , NL) observed 0801 UTC 16 December 2019
Temperature: 6.0°C (43°F)
Dewpoint: 5.0°C (41°F) [RH = 93%]
Pressure (altimeter): 29.59 inches Hg (1002.0 mb)
Winds: from the S (180 degrees) at 15 MPH (13 knots; 6.7 m/s)
Visibility: 6 or more miles (10+ km)
Ceiling: 6500 feet AGL
Clouds: scattered clouds at 1300 feet AGL
broken clouds at 6500 feet AGL
broken clouds at 7300 feet AGL
scattered clouds at 1300 feet AGL
Weather: no significant weather observed at this time

METAR text: EHKD 160755Z AUTO 19013KT //// // SCT012 SCT014 BKN040 06/05 Q1002 RE// 19013KT 9999 SCT013 BKN090
Conditions at: EHKD (DE KOOY (NAVY) , NL) observed 0755 UTC 16 December 2019
Temperature: 6.0°C (43°F)
Dewpoint: 5.0°C (41°F) [RH = 93%]
Pressure (altimeter): 29.59 inches Hg (1002.0 mb)
Winds: from the S (190 degrees) at 15 MPH (13 knots; 6.7 m/s)
Visibility: 6 or more miles (10+ km)
Ceiling: 4000 feet AGL
Clouds: scattered clouds at 1200 feet AGL
scattered clouds at 1400 feet AGL
broken clouds at 4000 feet AGL
scattered clouds at 1300 feet AGL
Weather: no significant weather observed at this time

Forecast for: EHKD (DE KOOY (NAVY) , NL)
Text: TAF EHKD 160506Z 1606/1618 19014KT CAVOK
Forecast period: 0600 to 1600 UTC 16 December 2019
Forecast type: FROM: standard forecast or significant change
Winds: from the S (190 degrees) at 16 MPH (14 knots; 7.2 m/s)
Visibility: 6 or more miles 10+ km)
Ceiling: unknown
Clouds: missing
Weather: NSW  (no significant weather)
Text: TEMPO 1608/1618 SCT007 SCT015CB BKN020
Forecast period: 0800 to 1800 UTC 16 December 2019
Forecast type: TEMPORARY: The following changes expected for less than half the time period
Visibility: missing
Ceiling: 2000 feet AGL
Clouds: scattered clouds at 700 feet AGL
scattered clouds at 1500 feet AGL
broken clouds at 2000 feet AGL
Weather: no significant weather forecast for this period
Text: PROB40
Forecast period: 0800 to 1100 UTC 16 December 2019
Forecast type: TEMPORARY: The following changes expected for less than half the time period
Visibility: missing
Ceiling: 800 feet AGL
Clouds: broken clouds at 800 feet AGL
Weather: no significant weather forecast for this period
Text: TEMPO 1608/1611 BKN008
Forecast period: 1600 to 1800 UTC 16 December 2019
Forecast type: BECOMING: Conditions expected to become as follows by 1800 UTC 16 December 2019
Winds: from the SE (130 degrees) at 7 MPH (6 knots; 3.1 m/s)
Visibility: 6 or more miles 10+ km)
Ceiling: unknown
Clouds: missing
Weather: NSW  (no significant weather)

 AIRPORT MAP

 RUNWAY INFORMATION
Runway 04 Runway length 4183 ft Runway width 98 ft
Runway elevation 3 ft Runway displaced threshold 804 ft Runway heading 34
Runway 22 Runway length 4183 ft Runway width 98 ft
Runway elevation 2 ft Runway displaced threshold 804 ft Runway heading 214

 AIRPORT FREQUENCIES
Type APP Name APP Frequency 119.1 MHZ
Type FSS Name FINAL Frequency 123.3 MHZ
Type GND Name GND Frequency 121.725 MHZ
Type TWR Name TWR Frequency 120.125 MHZ

 AIRPORT NEAR NAVIGATION AIDS
Type VOR-DME Name Den Helder Frequency 115550 KHZ